Preston, Nebraska
Current Conditions -  °F | °C
As of 8:53 PM on Wednesday 26 Nov 2014 (Local Time) from KFNB Reporting Station
Overcast Overcast  
Wind Chill: 14°   Ceiling: 1700
Heat Index: 26°   Visibility: 10mi
Dew Point: 20°   Wind: 15mph
Humidity: 78%   Direction: 330°NNW
Pressure: 30.38"   Gusts: 23mph
Location:  40.1276°N, 95.5661°W
Report Text: KFNB 270253Z AUTO 33013G20KT 10SM OVC017 M03/M07 A3038 RMK AO2 SLP298 T10331067 53036
Loading
Personal Weather Stations






























Interactive Weather Map New forecast layout! Learn more

10-Day Weather Forecast

Advertisements
Track Severe Weather on mobile